KLIT/LIT METAR and TAF weather

Enter ICAO airport designator
Station Type Date Time Source
KLIT METAR 2019/11/18 08:53 UTC NOAA

KLIT 180853Z 00000KT 10SM CLR 02/01 A2995 RMK AO2 SLP145 60000 T00220011 56004 $


Station Type Date Time Source
KLIT Decoded METAR 2019/11/18 08:53 UTC NOAA

LITTLE ROCK ADAMS FIELD, AR, United States (KLIT) 34-44N 92-14W 79M
Nov 18, 2019 - 03:53 AM EST / 2019.11.18 0853 UTC
Wind: Calm:0
Visibility: 10 mile(s):0
Sky conditions: clear
Temperature: 36.0 F (2.2 C)
Dew Point: 34.0 F (1.1 C)
Relative Humidity: 92%
Pressure (altimeter): 29.95 in. Hg (1014 hPa)
Pressure tendency: 0.01 inches (0.4 hPa) lower than three hours ago
ob: KLIT 180853Z 00000KT 10SM CLR 02/01 A2995 RMK AO2 SLP145 60000 T00220011 56004
cycle: 9

Station Type Date Time Source
KLIT TAF 2019/11/18 06:33 UTC NOAA

TAF KLIT 180529Z 1806/1906 VRB03KT P6SM SKC
TEMPO 1811/1814 6SM BR
FM181400 28003KT P6SM SCT250
FM182200 20003KT P6SM OVC100

Example: see airport list